Time;durP1;ratioP1;P1;durP2;ratioP2;P2;SDS_P1;SDS_P2;PMS_P1;PMS_P2;Temp;Humidity;BMP_temperature;BMP_pressure;BME280_temperature;BME280_humidity;BME280_pressure;Samples;Min_cycle;Max_cycle;Signal;HPM_P1;HPM_P2
2021/11/17 02:28:06;;;;;;;38.28;16.40;;;5.60;99.90;;;;;;5093193;28;20075;-66
2021/11/17 02:30:36;;;;;;;41.90;17.38;;;5.60;99.90;;;;;;5095391;28;20140;-66
2021/11/17 02:33:35;;;;;;;44.78;17.10;;;5.60;99.90;;;;;;5097584;28;20051;-66
2021/11/17 02:36:40;;;;;;;43.17;17.25;;;5.60;99.90;;;;;;5099594;28;20050;-66
2021/11/17 02:39:17;;;;;;;42.85;16.75;;;5.60;99.90;;;;;;5097650;28;20036;-66
2021/11/17 02:42:04;;;;;;;41.40;17.75;;;5.60;99.90;;;;;;5095695;28;20067;-65
2021/11/17 02:45:13;;;;;;;43.00;17.00;;;5.60;99.90;;;;;;5092877;28;20074;-65
2021/11/17 02:47:52;;;;;;;37.80;15.45;;;5.60;99.90;;;;;;5084242;28;20047;-65
2021/11/17 02:50:47;;;;;;;45.00;16.25;;;5.60;99.90;;;;;;5092975;28;20113;-65
2021/11/17 02:53:31;;;;;;;35.65;16.05;;;5.70;99.90;;;;;;5090544;28;20046;-65
2021/11/17 02:56:08;;;;;;;30.73;14.00;;;5.70;99.90;;;;;;5108188;28;20409;-66
2021/11/17 02:58:54;;;;;;;36.72;16.40;;;5.70;99.90;;;;;;5101776;28;20066;-65
2021/11/17 03:01:49;;;;;;;40.08;16.52;;;5.60;99.90;;;;;;5096661;28;20041;-65
2021/11/17 03:04:27;;;;;;;32.55;15.60;;;5.60;99.90;;;;;;5093255;28;20040;-65
2021/11/17 03:07:31;;;;;;;31.08;14.32;;;5.60;99.90;;;;;;5077468;28;20048;-65
2021/11/17 03:10:33;;;;;;;33.47;14.73;;;5.60;99.90;;;;;;5090232;28;20475;-65
2021/11/17 03:13:06;;;;;;;32.05;14.98;;;5.60;99.90;;;;;;5091623;28;20047;-65
2021/11/17 03:15:52;;;;;;;35.33;16.05;;;5.60;99.90;;;;;;5106577;28;20093;-66
2021/11/17 03:18:42;;;;;;;36.65;15.93;;;5.70;99.90;;;;;;5101544;28;20062;-65
2021/11/17 03:21:15;;;;;;;32.22;15.30;;;5.60;99.90;;;;;;5110128;28;20048;-65
2021/11/17 03:24:00;;;;;;;32.78;15.25;;;5.70;99.90;;;;;;5094488;28;20040;-65
2021/11/17 03:26:42;;;;;;;30.58;14.98;;;5.60;99.90;;;;;;5097071;28;20383;-66
2021/11/17 03:29:12;;;;;;;;;;;5.70;99.90;;;;;;5091184;28;20043;-66
2021/11/17 03:31:55;;;;;;;39.05;14.40;;;5.60;99.90;;;;;;5073819;28;19994;-66
2021/11/17 03:34:44;;;;;;;31.77;15.07;;;5.70;99.90;;;;;;5099132;28;20059;-65
2021/11/17 03:37:38;;;;;;;32.40;15.48;;;5.70;99.90;;;;;;5090960;28;20035;-66
2021/11/17 03:40:15;;;;;;;31.75;15.50;;;5.70;99.90;;;;;;5097006;28;20198;-66
2021/11/17 03:42:57;;;;;;;33.53;15.63;;;5.60;99.90;;;;;;5090788;28;20465;-65
2021/11/17 03:45:39;;;;;;;35.25;16.13;;;5.60;99.90;;;;;;5090819;28;20455;-66
2021/11/17 03:48:36;;;;;;;32.65;16.13;;;5.50;99.90;;;;;;5093981;28;20059;-66
2021/11/17 03:51:34;;;;;;;31.83;15.57;;;5.50;99.90;;;;;;5083183;28;20052;-65
2021/11/17 03:54:13;;;;;;;30.88;15.23;;;5.50;99.90;;;;;;5090105;28;20517;-65
2021/11/17 03:56:55;;;;;;;31.98;16.15;;;5.40;99.90;;;;;;5098386;28;20046;-65
2021/11/17 03:59:38;;;;;;;33.00;16.25;;;5.40;99.90;;;;;;5063069;28;20048;-65
2021/11/17 04:02:05;;;;;;;;;;;5.40;99.90;;;;;;5092584;28;20488;-65
2021/11/17 04:04:51;;;;;;;32.78;15.45;;;5.50;99.90;;;;;;5092531;28;20275;-65
2021/11/17 04:07:41;;;;;;;37.70;17.30;;;5.40;99.90;;;;;;5099954;28;20044;-65
2021/11/17 04:10:23;;;;;;;31.15;16.45;;;5.40;99.90;;;;;;5094414;28;20036;-65
2021/11/17 04:13:03;;;;;;;33.70;15.80;;;5.40;99.90;;;;;;5073318;28;20143;-65
2021/11/17 04:15:58;;;;;;;30.35;15.85;;;5.40;99.90;;;;;;5097470;28;20044;-66
2021/11/17 04:18:58;;;;;;;34.40;15.45;;;5.40;99.90;;;;;;5090697;28;20036;-66
2021/11/17 04:21:47;;;;;;;30.77;16.38;;;5.40;99.90;;;;;;5106383;28;20039;-65
2021/11/17 04:24:18;;;;;;;32.03;16.20;;;5.40;99.90;;;;;;5091393;28;20131;-65
2021/11/17 04:26:48;;;;;;;35.70;15.93;;;5.40;99.90;;;;;;5090955;28;20406;-65
2021/11/17 04:29:25;;;;;;;36.72;17.45;;;5.40;99.90;;;;;;5093977;28;20532;-65
2021/11/17 04:32:14;;;;;;;32.60;16.08;;;5.30;99.90;;;;;;5074489;28;20043;-65
2021/11/17 04:35:03;;;;;;;28.02;14.93;;;5.40;99.90;;;;;;5086352;28;20052;-65
2021/11/17 04:37:49;;;;;;;31.60;15.70;;;5.40;99.90;;;;;;5106315;28;20039;-65
2021/11/17 04:40:23;;;;;;;30.75;15.85;;;5.40;99.90;;;;;;5096673;28;20134;-66
2021/11/17 04:42:53;;;;;;;33.95;16.73;;;5.30;99.90;;;;;;5072345;28;20027;-66
2021/11/17 04:45:47;;;;;;;31.75;16.10;;;5.30;99.90;;;;;;5089673;28;20044;-66
2021/11/17 04:48:40;;;;;;;30.00;16.02;;;5.30;99.90;;;;;;5090314;28;20569;-66
2021/11/17 04:51:32;;;;;;;32.65;16.05;;;5.40;99.90;;;;;;5093447;28;20040;-66
2021/11/17 04:54:16;;;;;;;33.10;18.13;;;5.40;99.90;;;;;;5091818;28;20695;-66
2021/11/17 04:57:15;;;;;;;30.13;16.02;;;5.40;99.90;;;;;;5099177;28;20047;-66
2021/11/17 04:59:45;;;;;;;28.63;15.18;;;5.40;99.90;;;;;;5105996;28;20355;-66
2021/11/17 05:02:13;;;;;;;31.10;15.07;;;5.40;99.90;;;;;;5100672;28;20035;-65
2021/11/17 05:04:59;;;;;;;29.52;16.35;;;5.40;99.90;;;;;;5095201;28;20398;-66
2021/11/17 05:07:29;;;;;;;29.52;15.13;;;5.40;99.90;;;;;;5092813;28;20040;-66
2021/11/17 05:10:26;;;;;;;29.35;15.77;;;5.40;99.90;;;;;;5080075;28;20474;-66
2021/11/17 05:13:12;;;;;;;32.30;16.92;;;5.40;99.90;;;;;;5088425;28;20052;-66
2021/11/17 05:16:04;;;;;;;35.33;16.45;;;5.40;99.90;;;;;;5090474;28;20040;-67
2021/11/17 05:18:31;;;;;;;30.80;16.63;;;5.40;99.90;;;;;;5082143;28;20101;-66
2021/11/17 05:21:36;;;;;;;28.38;15.55;;;5.40;99.90;;;;;;5101422;28;20035;-67
2021/11/17 05:24:20;;;;;;;29.45;15.93;;;5.40;99.90;;;;;;5091920;28;20032;-67
2021/11/17 05:27:09;;;;;;;29.08;16.13;;;5.40;99.90;;;;;;5092460;28;20047;-67
2021/11/17 05:30:04;;;;;;;26.88;15.13;;;5.40;99.90;;;;;;5083742;28;20075;-67
2021/11/17 05:32:37;;;;;;;28.38;15.18;;;5.40;99.90;;;;;;5091581;28;20131;-67
2021/11/17 05:35:29;;;;;;;27.25;14.45;;;5.40;99.90;;;;;;5090187;28;20044;-67
2021/11/17 05:38:04;;;;;;;32.85;16.40;;;5.40;99.90;;;;;;5100541;28;20044;-67
2021/11/17 05:41:06;;;;;;;29.48;14.80;;;5.40;99.90;;;;;;5090644;28;20035;-68
2021/11/17 05:43:36;;;;;;;28.73;13.95;;;5.40;99.90;;;;;;5107220;28;20040;-68
2021/11/17 05:46:12;;;;;;;28.02;14.63;;;5.40;99.90;;;;;;5105749;28;20039;-67
2021/11/17 05:48:49;;;;;;;28.25;15.32;;;5.40;99.90;;;;;;5102100;28;20089;-68
2021/11/17 05:51:26;;;;;;;27.33;15.57;;;5.40;99.90;;;;;;5091252;28;20044;-68
2021/11/17 05:54:18;;;;;;;29.42;15.48;;;5.40;99.90;;;;;;5085424;28;20036;-67
2021/11/17 05:57:23;;;;;;;28.25;14.73;;;5.40;99.90;;;;;;5083256;28;20413;-67
2021/11/17 06:00:15;;;;;;;26.38;14.90;;;5.50;99.90;;;;;;5086189;28;20037;-68
2021/11/17 06:03:02;;;;;;;29.02;15.23;;;5.50;99.90;;;;;;5100457;28;20127;-68
2021/11/17 06:05:29;;;;;;;26.77;13.90;;;5.50;99.90;;;;;;5079097;28;20540;-67
2021/11/17 06:07:57;;;;;;;25.25;14.25;;;5.50;99.90;;;;;;5100069;28;20054;-67
2021/11/17 06:10:40;;;;;;;24.88;13.35;;;5.60;99.90;;;;;;5097084;28;20051;-68
2021/11/17 06:13:10;;;;;;;27.75;15.65;;;5.60;99.90;;;;;;5089782;28;20035;-68
2021/11/17 06:15:39;;;;;;;30.75;16.05;;;5.60;99.90;;;;;;5097404;28;20443;-68
2021/11/17 06:18:10;;;;;;;29.88;15.45;;;5.50;99.90;;;;;;5088380;28;20111;-67
2021/11/17 06:20:38;;;;;;;29.38;16.13;;;5.60;99.90;;;;;;5112245;28;20048;-67
2021/11/17 06:23:10;;;;;;;28.38;14.35;;;5.50;99.90;;;;;;5113513;28;20047;-69
2021/11/17 06:25:40;;;;;;;30.38;15.65;;;5.50;99.90;;;;;;5105470;28;20506;-68
2021/11/17 06:28:09;;;;;;;29.25;15.40;;;5.50;99.90;;;;;;5098143;28;20118;-68
2021/11/17 06:30:40;;;;;;;34.90;16.58;;;5.50;99.90;;;;;;5095892;28;20040;-68
2021/11/17 06:33:09;;;;;;;27.48;15.25;;;5.50;99.90;;;;;;5091297;28;20039;-68
2021/11/17 06:35:39;;;;;;;32.47;15.95;;;5.50;99.90;;;;;;5083760;28;20501;-69
2021/11/17 06:38:08;;;;;;;29.73;15.48;;;5.60;99.90;;;;;;5094648;28;20035;-68
2021/11/17 06:40:39;;;;;;;30.38;15.45;;;5.60;99.90;;;;;;5107954;28;20040;-68
2021/11/17 06:43:08;;;;;;;30.77;16.17;;;5.50;99.90;;;;;;5110275;28;20035;-68
2021/11/17 06:45:41;;;;;;;29.58;15.65;;;5.50;99.90;;;;;;5108976;28;20044;-68
2021/11/17 06:48:10;;;;;;;30.02;15.70;;;5.50;99.90;;;;;;5109340;28;20413;-68
2021/11/17 06:50:40;;;;;;;30.50;15.48;;;5.50;99.90;;;;;;5107574;28;20040;-68
2021/11/17 06:53:07;;;;;;;29.55;14.68;;;5.60;99.90;;;;;;5105621;28;20494;-69
2021/11/17 06:55:35;;;;;;;28.70;16.23;;;5.60;99.90;;;;;;5095200;28;20063;-69
2021/11/17 06:58:03;;;;;;;35.42;16.77;;;5.50;99.90;;;;;;5113152;28;20365;-68
2021/11/17 07:00:34;;;;;;;28.65;14.82;;;5.50;99.90;;;;;;5113338;28;20036;-69
2021/11/17 07:03:03;;;;;;;32.50;16.33;;;5.50;99.90;;;;;;5111345;28;20043;-68
2021/11/17 07:05:31;;;;;;;30.73;16.05;;;5.50;99.90;;;;;;5102094;28;20497;-69
2021/11/17 07:08:00;;;;;;;28.63;15.52;;;5.60;99.90;;;;;;5097488;28;20036;-68
2021/11/17 07:10:29;;;;;;;29.17;16.25;;;5.70;99.90;;;;;;5107678;28;20504;-69
2021/11/17 07:12:57;;;;;;;26.17;14.63;;;5.70;99.90;;;;;;5071381;28;20054;-69
2021/11/17 07:15:26;;;;;;;32.00;16.95;;;5.70;99.90;;;;;;5104588;28;20106;-69
2021/11/17 07:17:54;;;;;;;30.83;15.98;;;5.70;99.90;;;;;;5104054;28;20044;-69
2021/11/17 07:20:21;;;;;;;30.52;15.23;;;5.70;99.90;;;;;;5102411;28;20040;-68
2021/11/17 07:22:49;;;;;;;30.00;15.55;;;5.80;99.90;;;;;;5110322;28;20401;-69
2021/11/17 07:25:20;;;;;;;26.90;14.38;;;5.70;99.90;;;;;;5105747;28;20044;-69
2021/11/17 07:27:47;;;;;;;27.00;15.18;;;5.70;99.90;;;;;;5090298;28;20096;-69
2021/11/17 07:30:21;;;;;;;27.42;14.90;;;5.70;99.90;;;;;;5103958;28;20039;-69
2021/11/17 07:32:49;;;;;;;29.50;15.27;;;5.70;99.90;;;;;;5112340;28;20126;-69
2021/11/17 07:35:19;;;;;;;27.67;15.68;;;5.70;99.90;;;;;;5077458;28;20138;-68
2021/11/17 07:37:46;;;;;;;29.27;15.57;;;5.70;99.90;;;;;;5081884;28;20491;-68
2021/11/17 07:40:15;;;;;;;33.60;17.85;;;5.70;99.90;;;;;;5110509;28;20031;-68
2021/11/17 07:42:42;;;;;;;30.92;16.73;;;5.70;99.90;;;;;;5110905;28;20051;-68
2021/11/17 07:45:12;;;;;;;29.02;15.52;;;5.70;99.90;;;;;;5083833;28;20039;-68
2021/11/17 07:47:40;;;;;;;30.77;16.08;;;5.80;99.90;;;;;;5110060;28;20032;-68
2021/11/17 07:50:08;;;;;;;26.80;14.25;;;5.80;99.90;;;;;;5102733;28;20043;-68
2021/11/17 07:52:35;;;;;;;30.27;16.17;;;5.80;99.90;;;;;;5101864;28;20047;-67
2021/11/17 07:55:05;;;;;;;29.85;16.30;;;5.80;99.90;;;;;;5111349;28;20095;-67
2021/11/17 07:57:34;;;;;;;31.40;16.33;;;5.80;99.90;;;;;;5097921;28;20088;-67
2021/11/17 08:00:03;;;;;;;27.50;15.05;;;5.80;99.90;;;;;;5108763;28;20422;-68
2021/11/17 08:02:37;;;;;;;28.77;15.40;;;5.80;99.90;;;;;;5092873;28;20035;-68
2021/11/17 08:05:06;;;;;;;29.67;16.08;;;5.80;99.90;;;;;;5095084;28;20113;-67
2021/11/17 08:07:34;;;;;;;30.10;15.90;;;5.80;99.90;;;;;;5062928;28;20051;-68
2021/11/17 08:10:06;;;;;;;33.72;16.35;;;5.80;99.90;;;;;;5099539;28;20055;-68
2021/11/17 08:12:33;;;;;;;35.53;15.60;;;5.80;99.90;;;;;;5090126;28;20047;-68
2021/11/17 08:15:00;;;;;;;30.65;15.85;;;5.90;99.90;;;;;;5092884;28;20040;-67
2021/11/17 08:17:28;;;;;;;26.23;15.05;;;5.90;99.90;;;;;;5101754;28;20524;-67
2021/11/17 08:19:55;;;;;;;28.63;15.40;;;5.90;99.90;;;;;;5095232;28;20110;-67
2021/11/17 08:22:22;;;;;;;31.27;15.20;;;5.90;99.90;;;;;;5090336;28;20410;-68
2021/11/17 08:24:49;;;;;;;30.55;15.93;;;6.00;99.90;;;;;;5073973;28;20039;-68
2021/11/17 08:27:19;;;;;;;30.55;15.65;;;5.90;99.90;;;;;;5081473;28;20044;-68
2021/11/17 08:29:48;;;;;;;30.42;16.42;;;5.90;99.90;;;;;;5079192;28;20047;-68
2021/11/17 08:32:17;;;;;;;31.88;16.83;;;5.90;99.90;;;;;;5104409;28;20057;-68
2021/11/17 08:34:45;;;;;;;30.60;16.55;;;5.80;99.90;;;;;;5094951;28;20044;-68
2021/11/17 08:37:13;;;;;;;29.55;15.75;;;5.80;99.90;;;;;;5105345;28;20476;-67
2021/11/17 08:39:41;;;;;;;35.58;18.05;;;5.90;99.90;;;;;;5082889;28;20047;-67
2021/11/17 08:42:13;;;;;;;30.13;16.17;;;6.00;99.90;;;;;;5107472;28;20051;-67
2021/11/17 08:44:42;;;;;;;37.67;21.48;;;6.00;99.90;;;;;;5111183;28;20665;-68
2021/11/17 08:47:16;;;;;;;31.98;15.32;;;6.10;99.90;;;;;;5076023;28;20047;-67
2021/11/17 08:49:44;;;;;;;28.95;16.17;;;6.10;99.90;;;;;;5091393;28;20051;-67
2021/11/17 08:52:12;;;;;;;27.35;15.25;;;6.20;99.90;;;;;;5083723;28;20040;-68
2021/11/17 08:54:41;;;;;;;26.88;14.38;;;6.20;99.90;;;;;;5094683;28;20044;-67
2021/11/17 08:57:08;;;;;;;29.65;15.20;;;6.20;99.90;;;;;;5109660;28;20057;-68
2021/11/17 08:59:35;;;;;;;35.47;15.40;;;6.30;99.90;;;;;;5105778;28;20051;-68
2021/11/17 09:02:05;;;;;;;29.75;15.68;;;6.30;99.90;;;;;;5102152;28;20067;-68
2021/11/17 09:04:33;;;;;;;31.35;15.38;;;6.30;99.90;;;;;;5093035;28;20047;-67
2021/11/17 09:07:00;;;;;;;32.97;16.52;;;6.20;99.90;;;;;;5070897;28;20032;-68
2021/11/17 09:09:28;;;;;;;28.60;15.07;;;6.20;99.90;;;;;;5099916;28;20048;-67
2021/11/17 09:11:55;;;;;;;27.38;14.85;;;6.10;99.90;;;;;;5101330;28;20565;-67
2021/11/17 09:14:22;;;;;;;25.33;13.95;;;6.10;99.90;;;;;;5083866;28;20051;-67
2021/11/17 09:16:50;;;;;;;28.92;15.18;;;6.20;99.90;;;;;;5099293;28;20050;-68
2021/11/17 09:19:20;;;;;;;28.48;15.65;;;6.10;99.90;;;;;;5072972;28;20051;-68
2021/11/17 09:21:48;;;;;;;27.27;14.90;;;6.10;99.90;;;;;;5091696;28;20036;-68
2021/11/17 09:24:18;;;;;;;26.92;14.98;;;6.10;99.90;;;;;;5092851;28;20379;-67
2021/11/17 09:26:47;;;;;;;25.10;14.63;;;6.10;99.90;;;;;;5089720;28;20036;-68
2021/11/17 09:29:16;;;;;;;29.83;14.77;;;6.10;99.90;;;;;;5073639;28;20093;-67
2021/11/17 09:31:46;;;;;;;25.98;14.43;;;6.10;99.90;;;;;;5093424;28;20089;-67
2021/11/17 09:34:15;;;;;;;29.08;13.93;;;6.00;99.90;;;;;;5090804;28;20036;-67
2021/11/17 09:36:44;;;;;;;25.40;13.70;;;6.00;99.90;;;;;;5099779;28;20501;-68
2021/11/17 09:39:13;;;;;;;25.08;14.20;;;5.90;99.90;;;;;;5093463;28;20044;-68
2021/11/17 09:41:47;;;;;;;23.02;13.18;;;5.90;99.90;;;;;;5112741;28;20115;-68
2021/11/17 09:44:25;;;;;;;23.42;13.00;;;6.00;99.90;;;;;;5086972;28;20047;-68
2021/11/17 09:46:52;;;;;;;21.25;13.10;;;6.00;99.90;;;;;;5096087;28;20036;-67
2021/11/17 09:49:31;;;;;;;23.90;13.77;;;6.00;99.90;;;;;;5088170;28;20557;-67
2021/11/17 09:52:04;;;;;;;24.02;13.50;;;5.90;99.90;;;;;;5081500;28;20063;-67
2021/11/17 09:54:41;;;;;;;25.88;13.75;;;5.90;99.90;;;;;;5078225;28;20090;-67
2021/11/17 09:57:22;;;;;;;26.75;12.55;;;6.00;99.90;;;;;;5104163;28;20039;-68
2021/11/17 10:00:01;;;;;;;27.30;13.88;;;6.00;99.90;;;;;;5106691;28;20040;-68
2021/11/17 10:02:56;;;;;;;26.23;13.13;;;6.00;99.90;;;;;;5099447;28;20427;-67
2021/11/17 10:05:45;;;;;;;21.38;12.80;;;6.10;99.90;;;;;;5094627;28;20139;-68
2021/11/17 10:14:16;;;;;;;23.95;12.88;;;6.10;99.90;;;;;;5093781;28;20271;-69
2021/11/17 10:16:44;;;;;;;22.77;12.35;;;6.10;99.90;;;;;;5094910;28;20391;-68
2021/11/17 10:19:31;;;;;;;22.95;12.30;;;6.10;99.90;;;;;;5084474;28;20040;-69
2021/11/17 10:22:06;;;;;;;27.77;12.02;;;6.10;99.90;;;;;;5093264;28;20032;-67
2021/11/17 10:24:52;;;;;;;20.48;11.82;;;6.00;99.90;;;;;;5092372;28;20062;-68
2021/11/17 10:27:31;;;;;;;21.17;12.18;;;6.00;99.90;;;;;;5098792;28;20050;-66
2021/11/17 10:30:09;;;;;;;22.25;12.23;;;6.00;99.90;;;;;;5095498;28;20113;-67
2021/11/17 10:32:42;;;;;;;23.95;12.38;;;6.00;99.90;;;;;;5092336;28;20040;-67
2021/11/17 10:35:12;;;;;;;21.10;11.60;;;6.20;99.90;;;;;;5093401;28;20146;-67
2021/11/17 10:38:00;;;;;;;20.50;11.95;;;6.30;99.90;;;;;;5081063;28;20502;-68
2021/11/17 10:40:32;;;;;;;22.05;11.45;;;6.40;99.90;;;;;;5107887;28;20039;-67
2021/11/17 10:43:07;;;;;;;20.92;11.40;;;6.40;99.90;;;;;;5093874;28;20046;-67
2021/11/17 10:45:50;;;;;;;21.15;11.48;;;6.30;99.90;;;;;;5091517;28;20039;-67
2021/11/17 10:48:40;;;;;;;19.40;10.95;;;6.30;99.90;;;;;;5107346;28;20514;-68
2021/11/17 10:51:21;;;;;;;19.77;12.02;;;6.20;99.90;;;;;;5091576;28;20138;-67
2021/11/17 10:53:52;;;;;;;21.15;12.00;;;6.30;99.90;;;;;;5091266;28;20056;-67
2021/11/17 10:56:23;;;;;;;21.23;11.75;;;6.20;99.90;;;;;;5081296;28;20158;-68
2021/11/17 10:58:53;;;;;;;20.42;11.82;;;6.20;99.90;;;;;;5082779;28;20044;-68
2021/11/17 11:01:30;;;;;;;21.48;11.95;;;6.10;99.90;;;;;;5095590;28;20040;-68
2021/11/17 11:04:03;;;;;;;21.60;11.68;;;6.20;99.90;;;;;;5084585;28;20073;-67
2021/11/17 11:06:32;;;;;;;18.40;10.52;;;6.10;99.90;;;;;;5093426;28;20036;-68
2021/11/17 11:09:21;;;;;;;19.40;10.82;;;6.10;99.90;;;;;;5097260;28;20504;-69
2021/11/17 11:11:51;;;;;;;16.50;9.85;;;6.10;99.90;;;;;;5069357;28;20040;-68
2021/11/17 11:14:37;;;;;;;13.82;8.23;;;6.10;99.90;;;;;;5081154;28;20052;-67
2021/11/17 11:17:30;;;;;;;14.52;8.48;;;6.10;99.90;;;;;;5102139;28;20127;-69
2021/11/17 11:20:26;;;;;;;17.63;8.93;;;6.00;99.90;;;;;;5101196;28;20036;-68
2021/11/17 11:23:05;;;;;;;14.40;8.52;;;5.90;99.90;;;;;;5087364;28;20537;-67
2021/11/17 11:25:45;;;;;;;14.77;9.20;;;6.00;99.90;;;;;;5103271;28;20505;-67
2021/11/17 11:28:21;;;;;;;13.20;8.48;;;5.90;99.90;;;;;;5083211;28;20372;-68
2021/11/17 11:31:01;;;;;;;17.13;10.30;;;5.90;99.90;;;;;;5083539;28;20097;-67
2021/11/17 11:33:30;;;;;;;17.40;9.98;;;5.80;99.90;;;;;;5090366;28;20398;-68
2021/11/17 11:36:12;;;;;;;15.68;9.73;;;5.80;99.90;;;;;;5091120;28;20036;-68
2021/11/17 11:39:11;;;;;;;16.77;10.48;;;5.90;99.90;;;;;;5099368;28;20585;-67
2021/11/17 11:42:04;;;;;;;17.35;10.32;;;6.00;99.90;;;;;;5090401;28;20405;-67
2021/11/17 11:45:09;;;;;;;16.25;9.65;;;6.20;99.90;;;;;;5095528;28;20070;-68
2021/11/17 11:47:51;;;;;;;19.45;10.20;;;6.20;99.90;;;;;;5057038;28;20059;-68
2021/11/17 11:50:30;;;;;;;;;;;6.20;99.90;;;;;;5092355;28;20036;-68
2021/11/17 11:53:10;;;;;;;20.13;11.05;;;6.30;99.90;;;;;;5090990;28;19960;-68
2021/11/17 11:55:52;;;;;;;17.63;10.00;;;6.20;99.90;;;;;;5105004;28;20036;-68
2021/11/17 11:58:25;;;;;;;18.83;10.85;;;6.20;99.90;;;;;;5044602;28;20055;-67
2021/11/17 12:01:03;;;;;;;19.10;10.00;;;6.20;99.90;;;;;;5108900;28;20035;-67
2021/11/17 12:03:34;;;;;;;20.15;10.23;;;6.10;99.90;;;;;;5108719;28;20103;-67
2021/11/17 12:06:18;;;;;;;16.83;10.43;;;6.10;99.90;;;;;;5073490;28;20513;-66
2021/11/17 12:08:55;;;;;;;16.73;10.18;;;6.00;99.90;;;;;;5090974;28;20059;-68
2021/11/17 12:11:29;;;;;;;16.35;10.23;;;6.00;99.90;;;;;;5091581;28;20048;-67
2021/11/17 12:14:11;;;;;;;17.38;10.77;;;5.90;99.90;;;;;;5072552;28;20135;-68
2021/11/17 12:16:42;;;;;;;16.00;10.52;;;5.90;99.90;;;;;;5093019;28;20036;-68
2021/11/17 12:19:14;;;;;;;16.95;9.93;;;5.80;99.90;;;;;;5091982;28;20517;-68
2021/11/17 12:21:42;;;;;;;13.05;9.02;;;5.90;99.90;;;;;;5102041;28;20132;-67
2021/11/17 12:24:24;;;;;;;21.63;11.18;;;5.90;99.90;;;;;;5091061;28;20036;-67
2021/11/17 12:27:06;;;;;;;18.90;10.65;;;5.80;99.90;;;;;;5072111;28;20071;-67
2021/11/17 12:29:51;;;;;;;17.80;10.15;;;5.90;99.90;;;;;;5090693;28;20036;-68
2021/11/17 12:32:48;;;;;;;19.10;11.15;;;5.90;99.90;;;;;;5090971;28;20047;-68
2021/11/17 12:35:41;;;;;;;16.73;10.52;;;5.90;99.90;;;;;;5078449;28;20044;-68
2021/11/17 12:38:25;;;;;;;19.55;11.45;;;5.90;99.90;;;;;;5089302;28;20043;-68
2021/11/17 12:40:59;;;;;;;19.23;10.82;;;5.90;99.90;;;;;;5077698;28;20090;-68
2021/11/17 12:43:30;;;;;;;16.00;9.85;;;5.90;99.90;;;;;;5090993;28;20052;-68
2021/11/17 12:46:25;;;;;;;18.40;11.38;;;5.90;99.90;;;;;;5085580;28;20100;-68
2021/11/17 12:49:13;;;;;;;23.70;11.40;;;6.00;99.90;;;;;;5078661;28;20142;-68
2021/11/17 12:52:00;;;;;;;13.90;8.70;;;6.00;99.90;;;;;;5109055;28;20123;-67
2021/11/17 12:54:40;;;;;;;17.23;10.30;;;6.00;99.90;;;;;;5077727;28;20413;-67
2021/11/17 12:57:23;;;;;;;16.83;9.80;;;5.80;99.90;;;;;;5110421;28;20048;-67
2021/11/17 12:59:59;;;;;;;15.43;9.18;;;5.70;99.90;;;;;;5110659;28;20130;-67
2021/11/17 13:02:26;;;;;;;15.73;9.30;;;5.70;99.90;;;;;;5109776;28;20130;-67
2021/11/17 13:05:31;;;;;;;15.23;9.07;;;5.60;99.90;;;;;;5086403;28;20448;-68
2021/11/17 13:08:05;;;;;;;16.45;9.25;;;5.60;99.90;;;;;;5069535;28;20039;-66
2021/11/17 13:10:32;;;;;;;14.88;8.38;;;5.50;99.90;;;;;;5079998;28;20059;-67
2021/11/17 13:13:37;;;;;;;14.40;8.60;;;5.50;99.90;;;;;;5091934;28;20058;-68
2021/11/17 13:16:39;;;;;;;15.18;8.75;;;5.60;99.90;;;;;;5053878;28;20072;-68
2021/11/17 13:19:19;;;;;;;14.85;8.63;;;5.70;99.90;;;;;;5091099;28;20543;-67
2021/11/17 13:21:55;;;;;;;14.85;8.30;;;5.70;99.90;;;;;;5090811;28;20374;-67
2021/11/17 13:24:22;;;;;;;14.90;7.75;;;5.60;99.90;;;;;;5094912;28;20047;-68
2021/11/17 13:27:10;;;;;;;13.18;8.60;;;5.60;99.90;;;;;;5070244;28;20036;-68
2021/11/17 13:29:58;;;;;;;12.23;7.45;;;5.70;99.90;;;;;;5099771;28;20062;-67
2021/11/17 13:32:38;;;;;;;11.80;7.35;;;5.70;99.90;;;;;;5097579;28;20509;-67
2021/11/17 13:35:28;;;;;;;13.02;7.35;;;5.70;99.90;;;;;;5094628;28;20040;-67
2021/11/17 13:38:11;;;;;;;12.40;7.57;;;5.70;99.90;;;;;;5096650;28;20142;-67
2021/11/17 13:40:40;;;;;;;10.85;6.47;;;5.70;99.90;;;;;;5089228;28;20050;-67
2021/11/17 13:43:09;;;;;;;14.77;7.93;;;5.70;99.90;;;;;;5105216;28;20043;-68
2021/11/17 13:45:39;;;;;;;13.73;7.47;;;5.60;99.90;;;;;;5094576;28;20040;-68
2021/11/17 13:48:07;;;;;;;11.75;7.40;;;5.70;99.90;;;;;;5081356;28;20044;-68
2021/11/17 13:50:38;;;;;;;12.73;7.20;;;5.60;99.90;;;;;;5099815;28;20130;-67
2021/11/17 13:53:07;;;;;;;12.00;7.10;;;5.60;99.90;;;;;;5095906;28;20048;-68
2021/11/17 13:55:46;;;;;;;10.95;7.10;;;5.60;99.90;;;;;;5109096;28;20075;-68
2021/11/17 13:58:14;;;;;;;15.77;7.45;;;5.70;99.90;;;;;;5105244;28;20051;-68
2021/11/17 14:00:43;;;;;;;15.27;8.05;;;5.70;99.90;;;;;;5102009;28;20044;-68
2021/11/17 14:03:17;;;;;;;13.10;7.38;;;5.70;99.90;;;;;;5071452;28;20055;-69
2021/11/17 14:05:46;;;;;;;11.65;6.85;;;5.60;99.90;;;;;;5107145;28;20334;-69
2021/11/17 14:08:13;;;;;;;11.55;7.55;;;5.60;99.90;;;;;;5108646;28;20040;-69
2021/11/17 14:10:41;;;;;;;12.40;6.78;;;5.50;99.90;;;;;;5089633;28;20490;-70
2021/11/17 14:13:09;;;;;;;12.52;7.05;;;5.50;99.90;;;;;;5086669;28;20036;-69
2021/11/17 14:15:37;;;;;;;12.23;7.10;;;5.50;99.90;;;;;;5094913;28;20069;-68
2021/11/17 14:18:10;;;;;;;11.10;6.78;;;5.50;99.90;;;;;;5111870;28;20066;-68
2021/11/17 14:20:40;;;;;;;13.88;7.30;;;5.50;99.90;;;;;;5085178;28;20040;-69
2021/11/17 14:23:08;;;;;;;13.35;7.28;;;5.50;99.90;;;;;;5083171;28;20051;-68
2021/11/17 14:25:36;;;;;;;11.95;7.13;;;5.40;99.90;;;;;;5103531;28;20725;-67
2021/11/17 14:28:07;;;;;;;12.68;7.15;;;5.40;99.90;;;;;;5105307;28;20366;-69
2021/11/17 14:30:46;;;;;;;13.02;8.05;;;5.30;99.90;;;;;;5111778;28;20505;-69
2021/11/17 14:33:23;;;;;;;15.35;7.25;;;5.30;99.90;;;;;;5094053;28;20104;-69
2021/11/17 14:35:51;;;;;;;15.73;7.45;;;5.30;99.90;;;;;;5108318;28;20031;-67
2021/11/17 14:38:20;;;;;;;11.27;6.78;;;5.40;99.90;;;;;;5110408;28;20040;-67
2021/11/17 14:40:51;;;;;;;14.57;7.50;;;5.30;99.90;;;;;;5091261;28;20131;-67
2021/11/17 14:43:21;;;;;;;16.08;7.88;;;5.30;99.90;;;;;;5081373;28;20032;-68
2021/11/17 14:45:50;;;;;;;12.52;7.57;;;5.30;99.90;;;;;;5113332;28;20374;-68
2021/11/17 14:48:19;;;;;;;12.88;7.97;;;5.20;99.90;;;;;;5096280;28;20079;-68
2021/11/17 14:50:48;;;;;;;13.80;8.25;;;5.20;99.90;;;;;;5093319;28;20048;-68
2021/11/17 14:53:37;;;;;;;13.18;8.25;;;5.20;99.90;;;;;;5093357;28;20105;-68
2021/11/17 14:56:05;;;;;;;14.00;7.63;;;5.20;99.90;;;;;;5095195;28;20044;-67
2021/11/17 14:58:33;;;;;;;13.35;8.35;;;5.20;99.90;;;;;;5084655;28;20413;-67
2021/11/17 15:01:06;;;;;;;15.60;8.38;;;5.10;99.90;;;;;;5077517;28;20464;-67
2021/11/17 15:03:33;;;;;;;14.73;7.70;;;5.00;99.90;;;;;;5104231;28;20131;-68
2021/11/17 15:06:01;;;;;;;12.30;8.05;;;4.90;99.90;;;;;;5103797;28;20042;-67
2021/11/17 15:08:28;;;;;;;13.40;8.27;;;4.90;99.90;;;;;;5110617;28;20039;-68
2021/11/17 15:10:56;;;;;;;14.30;8.05;;;4.80;99.90;;;;;;5110334;28;20078;-68
2021/11/17 15:13:23;;;;;;;15.18;8.57;;;4.90;99.90;;;;;;5107751;28;20134;-67
2021/11/17 15:15:55;;;;;;;13.68;8.02;;;4.90;99.90;;;;;;5110626;28;20039;-67
2021/11/17 15:18:24;;;;;;;15.02;9.05;;;5.00;99.90;;;;;;5062709;28;20515;-67
2021/11/17 15:20:53;;;;;;;13.32;7.97;;;5.00;99.90;;;;;;5108090;28;20032;-68
2021/11/17 15:23:21;;;;;;;14.93;8.60;;;5.00;99.90;;;;;;5110486;28;20101;-67
2021/11/17 15:25:50;;;;;;;14.00;8.38;;;5.00;99.90;;;;;;5090072;28;20031;-67
2021/11/17 15:28:27;;;;;;;15.32;9.20;;;5.00;99.90;;;;;;5101412;28;20406;-67
2021/11/17 15:31:00;;;;;;;12.38;7.72;;;5.00;99.90;;;;;;5108719;28;20067;-68
2021/11/17 15:33:27;;;;;;;17.42;10.48;;;5.00;99.90;;;;;;5102620;28;20070;-67
2021/11/17 15:35:55;;;;;;;20.23;11.35;;;4.90;99.90;;;;;;5096910;28;20071;-67
2021/11/17 15:38:22;;;;;;;19.30;9.75;;;4.90;99.90;;;;;;5104737;28;20043;-67
2021/11/17 15:40:53;;;;;;;14.70;7.85;;;5.00;99.90;;;;;;5103316;28;20039;-67
2021/11/17 15:43:22;;;;;;;19.52;10.13;;;4.90;99.90;;;;;;5098419;28;20068;-68
2021/11/17 15:45:52;;;;;;;13.48;7.40;;;5.00;99.90;;;;;;5105035;28;20498;-67
2021/11/17 15:48:21;;;;;;;13.30;7.78;;;5.00;99.90;;;;;;5099748;28;20055;-68
2021/11/17 15:50:59;;;;;;;14.10;7.63;;;5.00;99.90;;;;;;5097466;28;20043;-68
2021/11/17 15:53:27;;;;;;;11.30;6.65;;;5.00;99.90;;;;;;5103246;28;20508;-68
2021/11/17 15:55:55;;;;;;;12.00;7.22;;;5.00;99.90;;;;;;5099937;28;20044;-69
2021/11/17 15:58:23;;;;;;;14.00;8.20;;;5.00;99.90;;;;;;5086621;28;20090;-66
2021/11/17 16:00:51;;;;;;;13.43;7.97;;;5.00;99.90;;;;;;5089837;28;20124;-68